createdAt,value
2019-05-21T00:01:14.000Z,97158
2019-05-21T00:03:16.000Z,97149
2019-05-21T00:04:39.000Z,97146
2019-05-21T00:06:42.000Z,97138
2019-05-21T00:08:07.000Z,97138
2019-05-21T00:10:10.000Z,97139
2019-05-21T00:11:37.000Z,97138
2019-05-21T00:13:39.000Z,97136
2019-05-21T00:15:05.000Z,97133
2019-05-21T00:17:08.000Z,97133
2019-05-21T00:18:31.000Z,97134
2019-05-21T00:20:33.000Z,97134
2019-05-21T00:21:59.000Z,97134
2019-05-21T00:24:06.000Z,97132
2019-05-21T00:25:30.000Z,97127
2019-05-21T00:27:31.000Z,97126
2019-05-21T00:28:58.000Z,97130
2019-05-21T00:31:09.000Z,97132
2019-05-21T00:32:32.000Z,97126
2019-05-21T00:34:39.000Z,97127
2019-05-21T00:36:14.000Z,97124
2019-05-21T00:38:17.000Z,97123
2019-05-21T00:39:49.000Z,97117
2019-05-21T00:41:54.000Z,97116
2019-05-21T00:43:21.000Z,97116
2019-05-21T00:45:25.000Z,97116
2019-05-21T00:46:48.000Z,97114
2019-05-21T00:48:54.000Z,97112
2019-05-21T00:50:19.000Z,97110
2019-05-21T00:52:22.000Z,97114
2019-05-21T00:53:48.000Z,97111
2019-05-21T00:55:55.000Z,97107
2019-05-21T00:57:22.000Z,97107
2019-05-21T00:59:26.000Z,97105
2019-05-21T01:00:53.000Z,97105
2019-05-21T01:03:01.000Z,97106
2019-05-21T01:04:31.000Z,97102
2019-05-21T01:06:37.000Z,97104
2019-05-21T01:08:00.000Z,97100
2019-05-21T01:10:09.000Z,97097
2019-05-21T01:11:35.000Z,97093
2019-05-21T01:13:39.000Z,97094
2019-05-21T01:15:07.000Z,97095
2019-05-21T01:17:15.000Z,97090
2019-05-21T01:18:41.000Z,97091
2019-05-21T01:20:49.000Z,97090
2019-05-21T01:22:14.000Z,97093
2019-05-21T01:24:20.000Z,97092
2019-05-21T01:25:51.000Z,97094
2019-05-21T01:27:54.000Z,97089
2019-05-21T01:29:19.000Z,97089
2019-05-21T01:31:25.000Z,97090
2019-05-21T01:32:50.000Z,97092
2019-05-21T01:34:53.000Z,97094
2019-05-21T01:36:23.000Z,97094
2019-05-21T01:38:32.000Z,97099
2019-05-21T01:40:01.000Z,97098
2019-05-21T01:42:09.000Z,97096
2019-05-21T01:43:42.000Z,97090
2019-05-21T01:45:51.000Z,97087
2019-05-21T01:47:20.000Z,97093
2019-05-21T01:49:30.000Z,97093
2019-05-21T01:50:59.000Z,97082
2019-05-21T01:53:08.000Z,97076
2019-05-21T01:54:39.000Z,97075
2019-05-21T01:56:49.000Z,97069
2019-05-21T01:58:18.000Z,97067
2019-05-21T02:00:32.000Z,97066
2019-05-21T02:02:04.000Z,97062
2019-05-21T02:04:17.000Z,97067
2019-05-21T02:05:40.000Z,97063
2019-05-21T02:07:50.000Z,97067
2019-05-21T02:09:19.000Z,97064
2019-05-21T02:11:25.000Z,97063
2019-05-21T02:12:59.000Z,97065
2019-05-21T02:15:07.000Z,97068
2019-05-21T02:16:40.000Z,97065
2019-05-21T02:18:53.000Z,97064
2019-05-21T02:20:25.000Z,97069
2019-05-21T02:22:43.000Z,97068
2019-05-21T02:24:14.000Z,97071
2019-05-21T02:26:22.000Z,97075
2019-05-21T02:27:52.000Z,97077
2019-05-21T02:30:03.000Z,97077
2019-05-21T02:31:32.000Z,97080
2019-05-21T02:33:40.000Z,97080
2019-05-21T02:35:14.000Z,97083
2019-05-21T02:37:26.000Z,97083
2019-05-21T02:38:58.000Z,97080
2019-05-21T02:41:10.000Z,97086
2019-05-21T02:42:41.000Z,97085
2019-05-21T02:46:04.000Z,97080
2019-05-21T02:47:26.000Z,97081
2019-05-21T02:49:27.000Z,97074
2019-05-21T02:50:49.000Z,97071
2019-05-21T02:52:50.000Z,97071
2019-05-21T02:54:12.000Z,97069
2019-05-21T02:56:14.000Z,97070
2019-05-21T02:57:36.000Z,97065
2019-05-21T02:59:37.000Z,97062
2019-05-21T03:00:59.000Z,97060
2019-05-21T03:03:00.000Z,97056
2019-05-21T03:04:22.000Z,97053
2019-05-21T03:06:23.000Z,97059
2019-05-21T03:07:45.000Z,97059
2019-05-21T03:09:45.000Z,97065
2019-05-21T03:11:08.000Z,97063
2019-05-21T03:13:09.000Z,97065
2019-05-21T03:14:31.000Z,97062
2019-05-21T03:16:33.000Z,97067
2019-05-21T03:17:56.000Z,97064
2019-05-21T03:19:57.000Z,97071
2019-05-21T03:21:19.000Z,97073
2019-05-21T03:23:21.000Z,97068
2019-05-21T03:24:43.000Z,97069
2019-05-21T03:26:43.000Z,97074
2019-05-21T03:28:05.000Z,97074
2019-05-21T03:30:07.000Z,97066
2019-05-21T03:31:29.000Z,97070
2019-05-21T03:33:31.000Z,97077
2019-05-21T03:34:53.000Z,97075
2019-05-21T03:36:54.000Z,97073
2019-05-21T03:38:16.000Z,97071
2019-05-21T03:40:16.000Z,97071
2019-05-21T03:41:38.000Z,97074
2019-05-21T03:43:41.000Z,97074
2019-05-21T04:13:16.000Z,97101
2019-05-21T04:14:38.000Z,97095
2019-05-21T04:16:39.000Z,97094
2019-05-21T04:18:01.000Z,97094
2019-05-21T04:20:02.000Z,97089
2019-05-21T04:21:24.000Z,97091
2019-05-21T04:23:25.000Z,97087
2019-05-21T04:24:47.000Z,97088
2019-05-21T04:26:48.000Z,97084
2019-05-21T04:28:10.000Z,97087
2019-05-21T04:30:11.000Z,97084
2019-05-21T04:31:33.000Z,97082
2019-05-21T04:33:34.000Z,97083
2019-05-21T04:34:56.000Z,97087
2019-05-21T04:36:57.000Z,97083
2019-05-21T04:38:33.000Z,97087
2019-05-21T04:40:34.000Z,97086
2019-05-21T04:41:57.000Z,97094
2019-05-21T04:45:52.000Z,97096
2019-05-21T04:47:14.000Z,97097
2019-05-21T04:49:15.000Z,97094
2019-05-21T04:50:37.000Z,97095
2019-05-21T04:52:38.000Z,97099
2019-05-21T04:54:00.000Z,97102
2019-05-21T04:56:01.000Z,97106
2019-05-21T04:57:23.000Z,97111
2019-05-21T04:59:23.000Z,97113
2019-05-21T05:00:45.000Z,97112
2019-05-21T05:02:46.000Z,97114
2019-05-21T05:04:08.000Z,97115
2019-05-21T05:06:09.000Z,97117
2019-05-21T05:07:32.000Z,97119
2019-05-21T05:09:35.000Z,97117
2019-05-21T05:10:58.000Z,97117
2019-05-21T05:12:59.000Z,97114
2019-05-21T05:14:23.000Z,97121
2019-05-21T05:16:26.000Z,97124
2019-05-21T05:17:48.000Z,97117
2019-05-21T05:19:49.000Z,97115
2019-05-21T05:21:11.000Z,97116
2019-05-21T05:23:12.000Z,97120
2019-05-21T05:24:35.000Z,97122
2019-05-21T05:26:38.000Z,97129
2019-05-21T05:28:01.000Z,97128
2019-05-21T05:30:04.000Z,97130
2019-05-21T05:31:27.000Z,97132
2019-05-21T05:33:29.000Z,97135
2019-05-21T05:34:51.000Z,97136
2019-05-21T05:36:53.000Z,97139
2019-05-21T05:38:15.000Z,97140
2019-05-21T05:40:17.000Z,97150
2019-05-21T05:41:40.000Z,97155
2019-05-21T05:43:42.000Z,97155
2019-05-21T05:45:04.000Z,97160
2019-05-21T05:47:05.000Z,97157
2019-05-21T05:48:28.000Z,97160
2019-05-21T05:50:31.000Z,97161
2019-05-21T05:51:53.000Z,97159
2019-05-21T05:53:56.000Z,97169
2019-05-21T05:55:19.000Z,97172
2019-05-21T05:57:21.000Z,97168
2019-05-21T05:58:44.000Z,97174
2019-05-21T06:00:47.000Z,97175
2019-05-21T06:02:10.000Z,97184
2019-05-21T06:04:13.000Z,97196
2019-05-21T06:05:37.000Z,97213
2019-05-21T06:07:38.000Z,97223
2019-05-21T06:09:01.000Z,97224
2019-05-21T06:11:02.000Z,97225
2019-05-21T06:12:25.000Z,97223
2019-05-21T06:14:26.000Z,97223
2019-05-21T06:15:50.000Z,97218
2019-05-21T06:17:53.000Z,97221
2019-05-21T06:19:16.000Z,97223
2019-05-21T06:21:17.000Z,97224
2019-05-21T06:22:40.000Z,97228
2019-05-21T06:24:44.000Z,97234
2019-05-21T06:26:07.000Z,97228
2019-05-21T06:28:10.000Z,97233
2019-05-21T06:29:35.000Z,97233
2019-05-21T06:31:44.000Z,97231
2019-05-21T06:33:07.000Z,97234
2019-05-21T06:35:08.000Z,97231
2019-05-21T06:36:31.000Z,97231
2019-05-21T06:38:36.000Z,97234
2019-05-21T06:40:00.000Z,97238
2019-05-21T06:42:06.000Z,97245
2019-05-21T06:43:31.000Z,97244
2019-05-21T06:45:33.000Z,97245
2019-05-21T06:46:57.000Z,97247
2019-05-21T06:49:05.000Z,97247
2019-05-21T06:50:30.000Z,97245
2019-05-21T06:52:36.000Z,97251
2019-05-21T06:54:01.000Z,97254
2019-05-21T06:56:08.000Z,97254
2019-05-21T06:57:35.000Z,97258
2019-05-21T06:59:40.000Z,97263
2019-05-21T07:01:08.000Z,97259
2019-05-21T07:03:12.000Z,97265
2019-05-21T07:04:37.000Z,97265
2019-05-21T07:06:40.000Z,97267
2019-05-21T07:08:06.000Z,97264
2019-05-21T07:10:09.000Z,97270
2019-05-21T07:11:37.000Z,97269
2019-05-21T07:13:40.000Z,97269
2019-05-21T07:15:04.000Z,97274
2019-05-21T07:17:09.000Z,97279
2019-05-21T07:18:30.000Z,97284
2019-05-21T07:20:32.000Z,97285
2019-05-21T07:21:58.000Z,97290
2019-05-21T07:24:16.000Z,97296
2019-05-21T07:25:41.000Z,97302
2019-05-21T07:27:51.000Z,97308
2019-05-21T07:29:14.000Z,97307
2019-05-21T07:31:25.000Z,97307
2019-05-21T07:32:53.000Z,97308
2019-05-21T07:35:03.000Z,97311
2019-05-21T07:36:29.000Z,97315
2019-05-21T07:38:30.000Z,97316
2019-05-21T07:39:57.000Z,97316
2019-05-21T07:42:02.000Z,97319
2019-05-21T07:43:30.000Z,97323
2019-05-21T07:45:33.000Z,97326
2019-05-21T07:46:56.000Z,97326
2019-05-21T07:48:59.000Z,97333
2019-05-21T07:50:30.000Z,97333
2019-05-21T07:52:31.000Z,97336
2019-05-21T07:53:57.000Z,97336
2019-05-21T07:56:01.000Z,97340
2019-05-21T07:57:27.000Z,97349
2019-05-21T07:59:30.000Z,97351
2019-05-21T08:00:52.000Z,97358
2019-05-21T08:03:04.000Z,97359
2019-05-21T08:04:29.000Z,97361
2019-05-21T08:06:34.000Z,97366
2019-05-21T08:08:02.000Z,97367
2019-05-21T08:10:11.000Z,97368
2019-05-21T08:11:33.000Z,97369
2019-05-21T08:13:38.000Z,97371
2019-05-21T08:15:05.000Z,97374
2019-05-21T08:17:12.000Z,97376
2019-05-21T08:18:39.000Z,97378
2019-05-21T08:20:48.000Z,97377
2019-05-21T08:22:16.000Z,97381
2019-05-21T08:24:22.000Z,97382
2019-05-21T08:25:49.000Z,97385
2019-05-21T08:27:58.000Z,97381
2019-05-21T08:29:27.000Z,97381
2019-05-21T08:31:31.000Z,97387
2019-05-21T08:33:08.000Z,97392
2019-05-21T08:35:16.000Z,97393
2019-05-21T08:36:47.000Z,97397
2019-05-21T08:40:30.000Z,97400
2019-05-21T08:41:18.000Z,97403
2019-05-21T08:42:45.000Z,97407
2019-05-21T08:44:52.000Z,97407
2019-05-21T08:46:17.000Z,97408
2019-05-21T08:48:34.000Z,97410
2019-05-21T08:50:00.000Z,97415
2019-05-21T08:52:06.000Z,97418
2019-05-21T08:53:36.000Z,97420
2019-05-21T08:55:44.000Z,97424
2019-05-21T08:57:18.000Z,97424
2019-05-21T08:59:32.000Z,97431
2019-05-21T09:00:59.000Z,97432
2019-05-21T09:03:11.000Z,97436
2019-05-21T09:04:45.000Z,97441
2019-05-21T09:07:02.000Z,97444
2019-05-21T09:08:30.000Z,97449
2019-05-21T09:10:44.000Z,97453
2019-05-21T09:12:16.000Z,97453
2019-05-21T09:14:28.000Z,97457
2019-05-21T09:15:58.000Z,97459
2019-05-21T09:18:11.000Z,97465
2019-05-21T09:19:42.000Z,97466
2019-05-21T09:21:54.000Z,97467
2019-05-21T09:23:22.000Z,97468
2019-05-21T09:25:31.000Z,97470
2019-05-21T09:27:01.000Z,97472
2019-05-21T09:29:14.000Z,97474
2019-05-21T09:30:44.000Z,97475
2019-05-21T09:34:08.000Z,97474
2019-05-21T09:35:30.000Z,97476
2019-05-21T09:37:32.000Z,97478
2019-05-21T09:38:54.000Z,97478
2019-05-21T09:40:55.000Z,97480
2019-05-21T09:42:17.000Z,97483
2019-05-21T09:44:18.000Z,97486
2019-05-21T09:45:40.000Z,97487
2019-05-21T09:47:42.000Z,97486
2019-05-21T09:49:04.000Z,97489
2019-05-21T09:51:05.000Z,97492
2019-05-21T09:52:28.000Z,97491
2019-05-21T09:54:30.000Z,97494
2019-05-21T09:55:52.000Z,97494
2019-05-21T09:57:53.000Z,97493
2019-05-21T09:59:15.000Z,97491
2019-05-21T10:01:18.000Z,97491
2019-05-21T10:02:40.000Z,97493
2019-05-21T10:04:41.000Z,97493
2019-05-21T10:06:03.000Z,97499
2019-05-21T10:08:04.000Z,97503
2019-05-21T10:09:26.000Z,97503
2019-05-21T10:11:27.000Z,97507
2019-05-21T10:12:49.000Z,97507
2019-05-21T10:14:50.000Z,97510
2019-05-21T10:16:14.000Z,97511
2019-05-21T10:18:16.000Z,97514
2019-05-21T10:19:38.000Z,97515
2019-05-21T10:21:39.000Z,97515
2019-05-21T10:23:01.000Z,97517
2019-05-21T10:25:02.000Z,97518
2019-05-21T10:26:24.000Z,97517
2019-05-21T10:28:25.000Z,97523
2019-05-21T10:29:47.000Z,97527
2019-05-21T10:31:48.000Z,97531
2019-05-21T10:33:10.000Z,97534
2019-05-21T10:35:13.000Z,97540
2019-05-21T10:36:35.000Z,97544
2019-05-21T10:38:36.000Z,97549
2019-05-21T10:39:58.000Z,97548
2019-05-21T10:42:00.000Z,97548
2019-05-21T10:43:23.000Z,97550
2019-05-21T10:45:24.000Z,97553
2019-05-21T10:46:52.000Z,97551
2019-05-21T10:48:54.000Z,97553
2019-05-21T10:50:18.000Z,97556
2019-05-21T10:52:20.000Z,97553
2019-05-21T10:53:44.000Z,97558
2019-05-21T10:55:46.000Z,97562
2019-05-21T10:57:09.000Z,97563
2019-05-21T10:59:13.000Z,97567
2019-05-21T11:00:37.000Z,97570
2019-05-21T11:02:39.000Z,97573
2019-05-21T11:04:05.000Z,97578
2019-05-21T11:06:08.000Z,97577
2019-05-21T11:07:33.000Z,97582
2019-05-21T11:09:38.000Z,97582
2019-05-21T11:11:01.000Z,97589
2019-05-21T11:13:02.000Z,97594
2019-05-21T11:14:26.000Z,97595
2019-05-21T11:16:29.000Z,97597
2019-05-21T11:17:52.000Z,97596
2019-05-21T11:20:12.000Z,97598
2019-05-21T11:21:34.000Z,97600
2019-05-21T11:23:38.000Z,97603
2019-05-21T11:25:04.000Z,97605
2019-05-21T11:27:07.000Z,97606
2019-05-21T11:28:30.000Z,97608
2019-05-21T11:30:32.000Z,97612
2019-05-21T11:31:57.000Z,97615
2019-05-21T11:34:01.000Z,97614
2019-05-21T11:35:25.000Z,97619
2019-05-21T11:37:26.000Z,97620
2019-05-21T11:38:51.000Z,97622
2019-05-21T11:40:56.000Z,97625
2019-05-21T11:42:19.000Z,97624
2019-05-21T11:44:23.000Z,97624
2019-05-21T11:45:50.000Z,97627
2019-05-21T11:47:58.000Z,97630
2019-05-21T11:49:26.000Z,97629
2019-05-21T11:51:30.000Z,97634
2019-05-21T11:52:54.000Z,97633
2019-05-21T11:54:58.000Z,97637
2019-05-21T11:56:21.000Z,97639
2019-05-21T11:58:27.000Z,97640
2019-05-21T11:59:49.000Z,97643
2019-05-21T12:01:55.000Z,97646
2019-05-21T12:03:23.000Z,97649
2019-05-21T12:05:26.000Z,97652
2019-05-21T12:06:51.000Z,97653
2019-05-21T12:08:53.000Z,97654
2019-05-21T12:10:19.000Z,97653
2019-05-21T13:29:05.000Z,97729
2019-05-21T13:30:28.000Z,97733
2019-05-21T13:32:29.000Z,97737
2019-05-21T13:33:51.000Z,97740
2019-05-21T13:35:52.000Z,97745
2019-05-21T13:37:15.000Z,97747
2019-05-21T13:39:24.000Z,97748
2019-05-21T13:40:47.000Z,97750
2019-05-21T13:42:48.000Z,97755
2019-05-21T13:44:10.000Z,97758
2019-05-21T13:46:11.000Z,97759
2019-05-21T13:47:33.000Z,97761
2019-05-21T13:49:35.000Z,97765
2019-05-21T13:50:57.000Z,97766
2019-05-21T13:52:59.000Z,97768
2019-05-21T13:54:22.000Z,97768
2019-05-21T13:56:23.000Z,97768
2019-05-21T13:57:47.000Z,97769
2019-05-21T13:59:49.000Z,97770
2019-05-21T14:01:11.000Z,97770
2019-05-21T14:03:16.000Z,97769
2019-05-21T14:04:39.000Z,97773
2019-05-21T14:06:40.000Z,97770
2019-05-21T14:08:03.000Z,97771
2019-05-21T14:10:05.000Z,97773
2019-05-21T14:11:40.000Z,97775
2019-05-21T14:13:41.000Z,97776
2019-05-21T14:15:04.000Z,97778
2019-05-21T14:17:07.000Z,97781
2019-05-21T14:18:31.000Z,97782
2019-05-21T14:20:34.000Z,97786
2019-05-21T14:21:57.000Z,97786
2019-05-21T14:23:59.000Z,97786
2019-05-21T14:25:22.000Z,97787
2019-05-21T14:27:23.000Z,97790
2019-05-21T14:28:45.000Z,97792
2019-05-21T14:30:46.000Z,97794
2019-05-21T14:32:09.000Z,97796
2019-05-21T14:34:10.000Z,97798
2019-05-21T14:35:32.000Z,97801
2019-05-21T14:37:35.000Z,97801
2019-05-21T14:38:57.000Z,97801
2019-05-21T14:41:00.000Z,97801
2019-05-21T14:42:23.000Z,97801
2019-05-21T14:44:26.000Z,97803
2019-05-21T14:45:49.000Z,97801
2019-05-21T14:47:52.000Z,97802
2019-05-21T14:49:17.000Z,97802
2019-05-21T14:51:19.000Z,97802
2019-05-21T14:52:42.000Z,97802
2019-05-21T14:54:44.000Z,97803
2019-05-21T14:56:06.000Z,97802
2019-05-21T14:58:07.000Z,97803
2019-05-21T14:59:30.000Z,97804
